createdAt,value
2022-08-23T00:00:45.189Z,20.18
2022-08-23T00:01:51.369Z,20.31
2022-08-23T00:02:55.527Z,20.25
2022-08-23T00:04:01.353Z,20.23
2022-08-23T00:05:08.916Z,20.17
2022-08-23T00:06:10.529Z,20.23
2022-08-23T00:07:15.423Z,19.99
2022-08-23T00:08:18.158Z,19.73
2022-08-23T00:09:22.129Z,20.09
2022-08-23T00:10:24.778Z,20.16
2022-08-23T00:11:33.382Z,20.18
2022-08-23T00:12:35.793Z,19.99
2022-08-23T00:13:47.765Z,20.11
2022-08-23T00:14:46.556Z,20.10
2022-08-23T00:15:49.086Z,20.08
2022-08-23T00:16:51.765Z,20.11
2022-08-23T00:17:55.176Z,20.13
2022-08-23T00:18:57.775Z,20.09
2022-08-23T00:19:59.927Z,20.14
2022-08-23T00:21:02.883Z,20.08
2022-08-23T00:22:06.161Z,20.10
2022-08-23T00:23:08.425Z,20.19
2022-08-23T00:24:12.727Z,20.21
2022-08-23T00:25:15.098Z,20.15
2022-08-23T00:26:17.831Z,20.09
2022-08-23T00:27:20.522Z,20.07
2022-08-23T00:28:22.899Z,20.09
2022-08-23T00:29:28.622Z,20.14
2022-08-23T00:30:32.119Z,20.10
2022-08-23T00:31:36.273Z,20.06
2022-08-23T00:32:41.051Z,20.12
2022-08-23T00:33:43.829Z,20.05
2022-08-23T00:34:46.530Z,19.98
2022-08-23T00:35:48.961Z,20.04
2022-08-23T00:36:51.593Z,20.02
2022-08-23T00:38:06.000Z,20.05
2022-08-23T00:39:00.982Z,20.07
2022-08-23T00:40:06.870Z,20.08
2022-08-23T00:41:09.238Z,20.05
2022-08-23T00:42:14.892Z,20.04
2022-08-23T00:43:26.564Z,20.08
2022-08-23T00:44:32.426Z,20.20
2022-08-23T00:45:50.361Z,20.14
2022-08-23T00:46:55.494Z,20.10
2022-08-23T00:47:58.203Z,20.07
2022-08-23T00:49:03.344Z,20.05
2022-08-23T00:50:28.646Z,20.12
2022-08-23T00:51:41.333Z,20.10
2022-08-23T00:52:42.613Z,20.13
2022-08-23T00:53:48.357Z,20.16
2022-08-23T00:54:53.228Z,20.11
2022-08-23T00:56:01.898Z,20.14
2022-08-23T00:57:07.707Z,20.14
2022-08-23T00:58:12.142Z,20.12
2022-08-23T00:59:14.513Z,20.09
2022-08-23T01:00:18.673Z,20.10
2022-08-23T01:01:21.193Z,20.10
2022-08-23T01:02:25.080Z,20.08
2022-08-23T01:03:30.150Z,20.05
2022-08-23T01:04:40.963Z,20.19
2022-08-23T01:05:46.818Z,20.17
2022-08-23T01:06:55.857Z,20.14
2022-08-23T01:07:59.537Z,20.13
2022-08-23T01:09:05.570Z,20.18
2022-08-23T01:10:14.971Z,20.17
2022-08-23T01:11:25.960Z,20.19
2022-08-23T01:12:33.089Z,20.16
2022-08-23T01:13:42.144Z,20.16
2022-08-23T01:14:55.408Z,20.14
2022-08-23T01:16:06.800Z,19.98
2022-08-23T01:17:10.624Z,20.15
2022-08-23T01:18:16.279Z,20.15
2022-08-23T01:19:25.115Z,20.13
2022-08-23T01:20:31.130Z,20.10
2022-08-23T01:21:43.488Z,20.11
2022-08-23T01:23:01.675Z,20.03
2022-08-23T01:24:05.392Z,20.06
2022-08-23T01:26:23.404Z,20.12
2022-08-23T01:27:25.972Z,20.04
2022-08-23T01:28:28.130Z,20.07
2022-08-23T01:29:30.624Z,20.08
2022-08-23T01:30:34.543Z,20.08
2022-08-23T01:31:37.145Z,20.08
2022-08-23T01:32:46.391Z,20.06
2022-08-23T01:33:52.455Z,20.04
2022-08-23T01:34:54.736Z,20.02
2022-08-23T01:35:58.679Z,20.05
2022-08-23T01:37:05.183Z,20.06
2022-08-23T01:38:09.116Z,20.04
2022-08-23T01:39:11.705Z,20.03
2022-08-23T01:40:14.862Z,20.01
2022-08-23T01:41:17.628Z,20.08
2022-08-23T01:42:20.215Z,20.04
2022-08-23T01:43:22.725Z,19.97
2022-08-23T01:44:27.339Z,20.07
2022-08-23T01:45:30.187Z,19.96
2022-08-23T01:46:32.908Z,19.97
2022-08-23T01:47:35.372Z,19.97
2022-08-23T01:48:38.325Z,20.01
2022-08-23T01:49:40.878Z,19.98
2022-08-23T01:50:43.651Z,20.01
2022-08-23T01:51:46.046Z,20.03
2022-08-23T01:52:48.589Z,20.11
2022-08-23T01:53:51.205Z,20.03
2022-08-23T01:54:53.369Z,20.11
2022-08-23T01:55:56.004Z,20.07
2022-08-23T01:56:58.476Z,20.05
2022-08-23T01:58:03.109Z,20.04
2022-08-23T01:59:08.169Z,20.07
2022-08-23T02:00:11.602Z,20.05
2022-08-23T02:01:17.295Z,19.99
2022-08-23T02:02:20.379Z,19.95
2022-08-23T02:03:22.786Z,19.98
2022-08-23T02:04:25.103Z,20.00
2022-08-23T02:05:28.949Z,20.04
2022-08-23T02:06:31.555Z,20.05
2022-08-23T02:07:33.973Z,19.91
2022-08-23T02:08:37.258Z,19.97
2022-08-23T02:09:39.759Z,19.97
2022-08-23T02:10:42.623Z,19.94
2022-08-23T02:11:46.719Z,19.94
2022-08-23T02:12:49.135Z,19.85
2022-08-23T02:13:54.086Z,19.92
2022-08-23T02:14:56.282Z,19.93
2022-08-23T02:15:58.761Z,19.89
2022-08-23T02:17:04.245Z,19.96
2022-08-23T02:18:05.797Z,19.91
2022-08-23T02:19:11.586Z,19.86
2022-08-23T02:20:15.215Z,19.93
2022-08-23T02:21:17.649Z,19.92
2022-08-23T02:22:20.092Z,19.87
2022-08-23T02:23:22.651Z,19.81
2022-08-23T02:24:25.710Z,19.83
2022-08-23T02:25:28.279Z,19.83
2022-08-23T02:26:30.981Z,19.78
2022-08-23T02:27:33.626Z,19.84
2022-08-23T02:28:36.413Z,19.79
2022-08-23T02:29:39.476Z,19.78
2022-08-23T02:30:44.664Z,19.55
2022-08-23T02:31:48.358Z,19.78
2022-08-23T02:32:52.642Z,19.74
2022-08-23T02:33:56.077Z,19.78
2022-08-23T02:35:05.032Z,19.80
2022-08-23T02:36:03.709Z,19.75
2022-08-23T02:37:07.988Z,19.79
2022-08-23T02:38:11.517Z,19.74
2022-08-23T02:39:15.482Z,19.73
2022-08-23T02:40:19.144Z,19.80
2022-08-23T02:41:22.580Z,19.68
2022-08-23T02:42:24.777Z,19.73
2022-08-23T02:43:27.219Z,19.71
2022-08-23T02:44:29.597Z,19.77
2022-08-23T02:45:33.456Z,19.60
2022-08-23T02:46:36.540Z,19.63
2022-08-23T02:47:39.034Z,19.57
2022-08-23T02:48:41.282Z,19.65
2022-08-23T02:49:43.631Z,19.65
2022-08-23T02:50:46.028Z,19.68
2022-08-23T02:51:48.237Z,19.61
2022-08-23T02:52:50.532Z,19.57
2022-08-23T02:53:52.960Z,19.52
2022-08-23T02:54:58.037Z,19.60
2022-08-23T02:55:59.680Z,19.63
2022-08-23T02:57:02.147Z,19.59
2022-08-23T02:58:04.296Z,19.68
2022-08-23T02:59:07.461Z,19.63
2022-08-23T03:00:11.887Z,19.65
2022-08-23T03:01:23.661Z,19.65
2022-08-23T03:02:26.089Z,19.70
2022-08-23T03:03:28.912Z,19.63
2022-08-23T03:04:31.172Z,19.59
2022-08-23T03:05:33.915Z,19.62
2022-08-23T03:06:37.251Z,19.61
2022-08-23T03:07:39.611Z,19.58
2022-08-23T03:08:42.355Z,19.55
2022-08-23T03:09:44.520Z,19.62
2022-08-23T03:10:49.095Z,19.51
2022-08-23T03:11:51.431Z,19.52
2022-08-23T03:12:53.799Z,19.52
2022-08-23T03:13:56.759Z,19.53
2022-08-23T03:14:59.695Z,19.54
2022-08-23T03:16:02.449Z,19.55
2022-08-23T03:17:04.927Z,19.52
2022-08-23T03:18:08.381Z,19.54
2022-08-23T03:19:11.186Z,19.53
2022-08-23T03:20:14.826Z,19.57
2022-08-23T03:21:18.043Z,19.21
2022-08-23T03:22:20.820Z,19.53
2022-08-23T03:23:23.143Z,19.60
2022-08-23T03:24:25.600Z,19.57
2022-08-23T03:25:28.656Z,19.49
2022-08-23T03:26:31.309Z,19.45
2022-08-23T03:27:38.380Z,19.55
2022-08-23T03:28:39.967Z,19.62
2022-08-23T03:29:43.039Z,19.68
2022-08-23T03:30:45.977Z,19.61
2022-08-23T03:31:48.444Z,19.46
2022-08-23T03:32:51.076Z,19.48
2022-08-23T03:33:53.575Z,19.56
2022-08-23T03:34:55.854Z,19.61
2022-08-23T03:36:03.137Z,19.65
2022-08-23T03:37:05.687Z,19.69
2022-08-23T03:38:08.476Z,19.67
2022-08-23T03:39:11.007Z,19.57
2022-08-23T03:40:14.255Z,19.66
2022-08-23T03:41:17.179Z,19.66
2022-08-23T03:42:19.568Z,19.62
2022-08-23T03:43:25.328Z,19.63
2022-08-23T03:44:28.035Z,19.75
2022-08-23T03:45:30.705Z,19.80
2022-08-23T03:46:34.338Z,19.85
2022-08-23T03:47:37.049Z,19.89
2022-08-23T03:48:39.563Z,19.89
2022-08-23T03:49:42.131Z,19.83
2022-08-23T03:50:46.475Z,19.82
2022-08-23T03:51:49.320Z,19.77
2022-08-23T03:52:51.644Z,19.84
2022-08-23T03:53:54.021Z,19.82
2022-08-23T03:54:56.484Z,19.86
2022-08-23T03:55:58.947Z,19.83
2022-08-23T03:57:05.037Z,19.89
2022-08-23T03:58:08.176Z,19.80
2022-08-23T03:59:10.960Z,19.94
2022-08-23T04:00:15.164Z,19.93
2022-08-23T04:02:31.233Z,20.08
2022-08-23T04:03:33.635Z,19.93
2022-08-23T04:04:36.135Z,19.95
2022-08-23T04:05:38.423Z,19.91
2022-08-23T04:06:42.872Z,20.02
2022-08-23T04:07:45.230Z,20.00
2022-08-23T04:08:52.161Z,20.00
2022-08-23T04:09:55.396Z,20.07
2022-08-23T04:11:00.134Z,20.04
2022-08-23T04:12:03.419Z,20.06
2022-08-23T04:13:08.349Z,20.19
2022-08-23T04:14:11.046Z,20.15
2022-08-23T04:15:13.129Z,20.23
2022-08-23T04:16:15.598Z,20.24
2022-08-23T04:17:17.783Z,20.36
2022-08-23T04:18:20.203Z,20.33
2022-08-23T04:19:23.858Z,20.35
2022-08-23T04:20:27.739Z,20.43
2022-08-23T04:21:31.129Z,20.47
2022-08-23T04:22:34.569Z,20.42
2022-08-23T04:23:38.590Z,20.48
2022-08-23T04:24:42.229Z,20.46
2022-08-23T04:25:44.499Z,20.46
2022-08-23T04:26:47.506Z,20.49
2022-08-23T04:27:51.443Z,20.48
2022-08-23T04:28:54.971Z,20.50
2022-08-23T04:29:57.642Z,20.54
2022-08-23T04:31:01.182Z,20.82
2022-08-23T04:32:07.829Z,20.82
2022-08-23T04:33:09.984Z,20.79
2022-08-23T04:34:13.943Z,20.77
2022-08-23T04:35:18.534Z,20.80
2022-08-23T04:36:23.374Z,20.70
2022-08-23T04:37:25.953Z,20.89
2022-08-23T04:38:29.404Z,20.96
2022-08-23T04:39:32.264Z,20.93
2022-08-23T04:40:37.091Z,20.94
2022-08-23T04:41:39.522Z,21.10
2022-08-23T04:42:42.029Z,21.09
2022-08-23T04:43:44.236Z,21.15
2022-08-23T04:44:47.012Z,21.18
2022-08-23T04:45:49.200Z,21.17
2022-08-23T04:46:52.446Z,21.16
2022-08-23T04:47:55.718Z,21.26
2022-08-23T04:48:58.648Z,21.22
2022-08-23T04:50:01.739Z,21.27
2022-08-23T04:51:04.172Z,21.33
2022-08-23T04:52:06.644Z,21.39
2022-08-23T04:53:09.290Z,21.36
2022-08-23T04:54:11.900Z,21.35
2022-08-23T04:55:16.396Z,21.32
2022-08-23T04:56:20.597Z,21.40
2022-08-23T04:57:22.662Z,21.41
2022-08-23T04:58:24.813Z,21.46
2022-08-23T04:59:27.203Z,21.41
2022-08-23T05:00:30.143Z,21.52
2022-08-23T05:01:33.287Z,21.55
2022-08-23T05:02:37.674Z,21.50
2022-08-23T05:03:40.162Z,21.41
2022-08-23T05:04:42.475Z,21.44
2022-08-23T05:05:44.938Z,21.48
2022-08-23T05:06:47.797Z,21.43
2022-08-23T05:07:50.189Z,21.54
2022-08-23T05:08:54.241Z,21.53
2022-08-23T05:09:56.826Z,21.57
2022-08-23T05:11:05.836Z,21.75
2022-08-23T05:12:08.253Z,21.78
2022-08-23T05:13:10.766Z,21.81
2022-08-23T05:14:13.094Z,21.94
2022-08-23T05:15:16.140Z,21.94
2022-08-23T05:16:18.789Z,22.04
2022-08-23T05:17:21.312Z,21.99
2022-08-23T05:18:25.329Z,22.11
2022-08-23T05:19:28.433Z,22.11
2022-08-23T05:20:30.897Z,22.18
2022-08-23T05:21:33.499Z,22.23
2022-08-23T05:22:38.585Z,21.94
2022-08-23T05:23:41.072Z,22.19
2022-08-23T05:24:44.513Z,22.32
2022-08-23T05:25:46.945Z,22.45
2022-08-23T05:26:49.307Z,22.52
2022-08-23T05:27:56.510Z,22.52
2022-08-23T05:28:58.797Z,22.48
2022-08-23T05:30:01.172Z,22.60
2022-08-23T05:31:06.982Z,22.77
2022-08-23T05:32:11.340Z,22.67
2022-08-23T05:33:14.369Z,22.53
2022-08-23T05:34:22.400Z,22.42
2022-08-23T05:35:23.519Z,22.48
2022-08-23T05:36:25.989Z,22.57
2022-08-23T05:37:28.278Z,22.57
2022-08-23T05:38:31.488Z,22.66
2022-08-23T05:39:36.287Z,22.73
2022-08-23T05:40:38.493Z,22.84
2022-08-23T05:41:41.668Z,22.93
2022-08-23T05:42:44.258Z,23.00
2022-08-23T05:43:46.742Z,22.98
2022-08-23T05:44:49.084Z,23.13
2022-08-23T05:46:11.219Z,23.07
2022-08-23T05:47:15.507Z,23.18
2022-08-23T05:48:18.408Z,23.23
2022-08-23T05:49:21.340Z,23.26
2022-08-23T05:50:25.856Z,23.23
2022-08-23T05:51:30.905Z,23.24
2022-08-23T05:52:33.038Z,23.31
2022-08-23T05:53:36.763Z,23.36
2022-08-23T05:54:39.656Z,23.31
2022-08-23T05:55:42.485Z,23.38
2022-08-23T05:56:45.275Z,23.40
2022-08-23T05:57:49.647Z,23.36
2022-08-23T05:58:59.102Z,23.62
2022-08-23T05:59:58.899Z,23.64
2022-08-23T06:01:01.484Z,23.69
2022-08-23T06:02:06.487Z,23.84
2022-08-23T06:03:09.261Z,23.99
2022-08-23T06:04:12.520Z,24.00
2022-08-23T06:05:15.997Z,24.08
2022-08-23T06:06:20.750Z,24.29
2022-08-23T06:07:24.959Z,24.32
2022-08-23T06:08:27.704Z,24.37
2022-08-23T06:09:29.966Z,24.44
2022-08-23T06:10:39.262Z,24.38
2022-08-23T06:11:40.358Z,24.34
2022-08-23T06:12:43.119Z,24.54
2022-08-23T06:13:48.824Z,24.54
2022-08-23T06:14:51.449Z,24.65
2022-08-23T06:15:56.979Z,24.76
2022-08-23T06:16:59.628Z,24.87
2022-08-23T06:18:02.280Z,24.94
2022-08-23T06:19:07.290Z,24.89
2022-08-23T06:20:10.576Z,25.01
2022-08-23T06:21:14.675Z,25.05
2022-08-23T06:22:17.681Z,25.06
2022-08-23T06:23:19.821Z,25.17
2022-08-23T06:24:23.153Z,25.17
2022-08-23T06:25:25.802Z,25.07
2022-08-23T06:26:31.571Z,25.06
2022-08-23T06:27:33.815Z,25.12
2022-08-23T06:28:36.290Z,25.18
2022-08-23T06:29:40.565Z,25.15
2022-08-23T06:30:43.193Z,25.22
2022-08-23T06:31:48.401Z,25.31
2022-08-23T06:32:50.771Z,25.22
2022-08-23T06:33:54.515Z,25.35
2022-08-23T06:35:24.378Z,25.34
2022-08-23T06:37:18.091Z,25.50
2022-08-23T06:38:20.362Z,25.56
2022-08-23T06:39:24.916Z,25.54
2022-08-23T06:40:28.275Z,25.64
2022-08-23T06:41:30.817Z,25.69
2022-08-23T06:42:40.722Z,25.69
2022-08-23T06:43:39.743Z,25.77
2022-08-23T06:44:42.239Z,25.83
2022-08-23T06:45:44.658Z,25.89
2022-08-23T06:46:49.990Z,25.92
2022-08-23T06:47:52.757Z,25.89
2022-08-23T06:48:55.697Z,25.87
2022-08-23T06:49:58.858Z,25.99
2022-08-23T06:51:01.611Z,26.10
2022-08-23T06:52:04.224Z,25.83
2022-08-23T06:53:07.256Z,26.19
2022-08-23T06:54:13.698Z,26.23
2022-08-23T06:55:16.357Z,26.21
2022-08-23T06:56:19.157Z,26.20
2022-08-23T06:57:21.731Z,26.21
2022-08-23T06:58:24.108Z,26.15
2022-08-23T06:59:27.313Z,26.22
2022-08-23T07:00:33.065Z,26.15
2022-08-23T07:01:46.929Z,26.37
2022-08-23T07:02:50.397Z,26.31
2022-08-23T07:03:55.921Z,26.27
2022-08-23T07:04:58.702Z,26.37
2022-08-23T07:06:00.903Z,26.44
2022-08-23T07:07:08.280Z,26.44
2022-08-23T07:08:09.678Z,26.26
2022-08-23T07:09:12.688Z,26.21
2022-08-23T07:10:18.858Z,26.25
2022-08-23T07:11:26.321Z,26.27
2022-08-23T07:12:28.560Z,26.37
2022-08-23T07:13:30.898Z,26.29
2022-08-23T07:14:33.789Z,26.23
2022-08-23T07:15:35.874Z,26.26
2022-08-23T07:16:44.655Z,26.26
2022-08-23T07:17:47.260Z,26.34
2022-08-23T07:18:49.654Z,26.28
2022-08-23T07:19:51.921Z,26.29
2022-08-23T07:21:02.619Z,26.33
2022-08-23T07:22:05.877Z,26.41
2022-08-23T07:23:10.080Z,26.50
2022-08-23T07:24:13.247Z,26.47
2022-08-23T07:25:17.232Z,26.47
2022-08-23T07:26:23.166Z,26.52
2022-08-23T07:27:25.857Z,26.59
2022-08-23T07:28:28.945Z,26.53
2022-08-23T07:29:32.686Z,26.56
2022-08-23T07:30:36.856Z,26.59
2022-08-23T07:31:43.078Z,26.54
2022-08-23T07:32:45.460Z,26.57
2022-08-23T07:33:48.708Z,26.66
2022-08-23T07:34:51.648Z,26.66
2022-08-23T07:35:53.865Z,26.80
2022-08-23T07:36:56.462Z,26.93
2022-08-23T07:38:01.037Z,26.78
2022-08-23T07:39:07.690Z,26.47
2022-08-23T07:40:11.137Z,26.82
2022-08-23T07:41:17.203Z,26.91
2022-08-23T07:42:23.060Z,26.77
2022-08-23T07:43:24.106Z,26.67
2022-08-23T07:44:27.495Z,26.67
2022-08-23T07:45:31.256Z,26.69
2022-08-23T07:46:46.265Z,26.54
2022-08-23T07:47:50.641Z,26.52
2022-08-23T07:48:54.659Z,26.64
2022-08-23T07:49:57.308Z,26.51
2022-08-23T07:51:05.486Z,26.54
2022-08-23T07:52:12.152Z,26.72
2022-08-23T07:53:17.076Z,26.86
2022-08-23T07:54:21.729Z,26.89
2022-08-23T07:55:25.845Z,27.02
2022-08-23T07:56:28.709Z,26.86
2022-08-23T07:57:30.925Z,26.70
2022-08-23T07:58:33.085Z,26.74
2022-08-23T08:00:46.984Z,26.95
2022-08-23T08:01:49.798Z,27.03
2022-08-23T08:02:52.432Z,26.69
2022-08-23T08:04:00.099Z,26.70
2022-08-23T08:05:02.678Z,26.59
2022-08-23T08:06:13.621Z,26.58
2022-08-23T08:07:24.249Z,26.72
2022-08-23T08:08:29.615Z,26.79
2022-08-23T08:09:32.016Z,26.99
2022-08-23T08:10:40.542Z,26.92
2022-08-23T08:11:45.055Z,27.11
2022-08-23T08:12:47.502Z,27.19
2022-08-23T08:13:52.604Z,27.21
2022-08-23T08:15:01.262Z,27.27
2022-08-23T08:16:07.005Z,26.78
2022-08-23T08:17:11.142Z,27.21
2022-08-23T08:18:13.541Z,27.21
2022-08-23T08:19:16.799Z,27.39
2022-08-23T08:20:23.377Z,27.23
2022-08-23T08:21:28.184Z,27.12
2022-08-23T08:22:32.901Z,27.01
2022-08-23T08:23:35.478Z,27.09
2022-08-23T08:24:40.490Z,27.01
2022-08-23T08:25:42.978Z,26.95
2022-08-23T08:26:47.611Z,26.79
2022-08-23T08:27:52.289Z,26.73
2022-08-23T08:28:57.468Z,26.67
2022-08-23T08:30:00.203Z,26.60
2022-08-23T08:31:04.391Z,26.58
2022-08-23T08:32:07.408Z,26.52
2022-08-23T08:33:34.477Z,26.52
2022-08-23T08:34:39.685Z,26.56
2022-08-23T08:35:42.713Z,26.54
2022-08-23T08:36:52.453Z,26.50
2022-08-23T08:37:57.162Z,26.79
2022-08-23T08:39:00.747Z,26.69
2022-08-23T08:40:04.263Z,26.63
2022-08-23T08:41:19.407Z,26.42
2022-08-23T08:42:28.456Z,26.63
2022-08-23T08:44:07.820Z,26.48
2022-08-23T08:45:14.026Z,26.49
2022-08-23T08:46:25.996Z,26.68
2022-08-23T08:47:33.558Z,27.02
2022-08-23T08:48:42.501Z,27.07
2022-08-23T08:51:03.620Z,27.66
2022-08-23T08:52:18.682Z,27.68
2022-08-23T08:53:39.084Z,27.69
2022-08-23T08:54:47.963Z,28.05
2022-08-23T08:55:53.054Z,28.25
2022-08-23T08:56:59.058Z,27.90
2022-08-23T08:58:12.096Z,27.72
2022-08-23T08:59:26.832Z,27.58
2022-08-23T09:00:39.731Z,27.34
2022-08-23T09:01:45.375Z,27.18
2022-08-23T09:02:48.791Z,27.22
2022-08-23T09:03:57.508Z,27.23
2022-08-23T09:05:12.391Z,27.15
2022-08-23T09:06:20.051Z,27.19
2022-08-23T09:07:46.907Z,27.22
2022-08-23T09:09:09.738Z,27.28
2022-08-23T09:10:22.261Z,27.30
2022-08-23T09:11:36.386Z,27.30
2022-08-23T09:13:03.847Z,27.25
2022-08-23T09:14:27.898Z,27.15
2022-08-23T09:17:05.608Z,27.37
2022-08-23T09:18:14.719Z,27.28
2022-08-23T09:19:17.954Z,27.18
2022-08-23T09:20:27.257Z,27.32
2022-08-23T09:21:34.212Z,27.26
2022-08-23T09:22:45.850Z,27.35
2022-08-23T09:24:00.404Z,27.36
2022-08-23T09:24:57.903Z,27.35
2022-08-23T09:26:04.110Z,27.46
2022-08-23T09:27:09.758Z,27.64
2022-08-23T09:28:15.321Z,27.77
2022-08-23T09:29:21.191Z,27.78
2022-08-23T09:30:28.115Z,27.89
2022-08-23T09:31:42.249Z,27.96
2022-08-23T09:32:47.180Z,27.88
2022-08-23T09:33:49.894Z,27.82
2022-08-23T09:34:54.354Z,27.68
2022-08-23T09:36:26.950Z,27.56
2022-08-23T09:37:29.378Z,27.51
2022-08-23T09:38:32.889Z,27.38
2022-08-23T09:39:38.563Z,27.30
2022-08-23T09:40:48.037Z,27.32
2022-08-23T09:41:50.553Z,27.31
2022-08-23T09:43:02.379Z,27.23
2022-08-23T09:44:12.462Z,27.16
2022-08-23T09:45:35.143Z,27.09
2022-08-23T09:46:36.213Z,27.04
2022-08-23T09:47:44.193Z,27.01
2022-08-23T09:48:44.930Z,27.01
2022-08-23T09:49:47.851Z,27.06
2022-08-23T09:50:52.950Z,27.06
2022-08-23T09:52:01.410Z,27.14
2022-08-23T09:53:11.087Z,27.29
2022-08-23T09:54:23.137Z,27.46
2022-08-23T09:55:29.000Z,27.61
2022-08-23T09:56:35.969Z,27.70
2022-08-23T09:57:38.486Z,27.62
2022-08-23T09:58:44.377Z,28.08
2022-08-23T09:59:48.449Z,28.24
2022-08-23T10:02:07.071Z,28.55
2022-08-23T10:03:29.006Z,28.50
2022-08-23T10:04:41.081Z,28.55
2022-08-23T10:05:47.316Z,28.62
2022-08-23T10:06:50.823Z,28.67
2022-08-23T10:07:59.678Z,28.75
2022-08-23T10:09:03.600Z,28.81
2022-08-23T10:10:19.130Z,28.86
2022-08-23T10:11:25.093Z,28.94
2022-08-23T10:12:29.104Z,28.85
2022-08-23T10:13:31.610Z,28.88
2022-08-23T10:14:35.176Z,28.95
2022-08-23T10:16:10.557Z,28.90
2022-08-23T10:17:25.979Z,28.97
2022-08-23T10:18:49.123Z,28.98
2022-08-23T10:20:13.599Z,29.00
2022-08-23T10:21:34.937Z,29.08
2022-08-23T10:22:42.110Z,29.11
2022-08-23T10:24:12.734Z,29.14
2022-08-23T10:25:30.944Z,29.05
2022-08-23T10:26:35.384Z,29.22
2022-08-23T10:27:53.095Z,29.29
2022-08-23T10:29:17.582Z,29.26
2022-08-23T10:30:24.239Z,29.31
2022-08-23T10:31:36.240Z,29.28
2022-08-23T10:32:51.374Z,29.34
2022-08-23T10:34:06.525Z,29.40
2022-08-23T10:35:24.544Z,29.46
2022-08-23T10:36:46.457Z,29.50
2022-08-23T10:37:54.472Z,29.42
2022-08-23T10:39:06.575Z,29.47
2022-08-23T10:40:27.047Z,29.49
2022-08-23T10:41:39.106Z,29.52
2022-08-23T10:43:03.732Z,29.52
2022-08-23T10:44:12.875Z,29.47
2022-08-23T10:46:34.826Z,29.57
2022-08-23T10:47:43.977Z,29.48
2022-08-23T10:48:51.977Z,29.60
2022-08-23T10:49:58.956Z,29.69
2022-08-23T10:51:14.612Z,29.71
2022-08-23T10:52:43.428Z,29.62
2022-08-23T10:53:55.062Z,29.77
2022-08-23T10:55:03.703Z,29.92
2022-08-23T10:56:10.144Z,29.96
2022-08-23T10:57:18.277Z,30.04
2022-08-23T10:59:35.959Z,30.13
2022-08-23T11:00:40.006Z,29.94
2022-08-23T11:02:05.862Z,29.74
2022-08-23T11:03:28.276Z,29.94
2022-08-23T11:04:53.878Z,29.97
2022-08-23T11:06:24.561Z,29.96
2022-08-23T11:07:32.881Z,29.96
2022-08-23T11:08:37.924Z,29.99
2022-08-23T11:10:07.035Z,30.09
2022-08-23T11:11:34.657Z,30.15
2022-08-23T11:12:52.599Z,30.09
2022-08-23T11:13:55.622Z,30.15
2022-08-23T11:15:10.957Z,30.15
2022-08-23T11:16:16.949Z,30.15
2022-08-23T11:17:44.416Z,30.23
2022-08-23T11:18:48.752Z,30.20
2022-08-23T11:20:00.472Z,30.15
2022-08-23T11:21:18.422Z,30.12
2022-08-23T11:22:27.273Z,30.13
2022-08-23T11:24:52.674Z,30.36
2022-08-23T11:25:55.101Z,30.23
2022-08-23T11:27:05.373Z,30.20
2022-08-23T11:28:30.388Z,30.14
2022-08-23T11:29:32.162Z,30.19
2022-08-23T11:30:40.923Z,30.21
2022-08-23T11:31:50.075Z,30.25
2022-08-23T11:32:53.325Z,30.30
2022-08-23T11:34:08.100Z,30.31
2022-08-23T11:35:43.129Z,30.34
2022-08-23T11:38:04.170Z,30.34
2022-08-23T11:39:19.600Z,30.23
2022-08-23T11:40:51.107Z,30.25
2022-08-23T11:41:57.150Z,30.25
2022-08-23T11:43:03.334Z,30.22
2022-08-23T11:44:14.456Z,30.26
2022-08-23T11:45:24.034Z,30.22
2022-08-23T11:46:30.787Z,30.24
2022-08-23T11:47:41.534Z,30.28
2022-08-23T11:48:47.318Z,30.32
2022-08-23T11:51:30.860Z,30.43
2022-08-23T11:52:57.175Z,30.33
2022-08-23T11:54:18.482Z,30.34
2022-08-23T11:55:31.827Z,30.35
2022-08-23T11:56:46.065Z,30.37
2022-08-23T11:57:48.991Z,30.41
2022-08-23T11:58:57.555Z,30.42
2022-08-23T12:00:09.719Z,30.42
2022-08-23T12:01:14.264Z,30.50
2022-08-23T12:02:48.720Z,30.56
2022-08-23T12:03:55.174Z,30.49
2022-08-23T12:05:00.972Z,30.52
2022-08-23T12:06:06.922Z,30.59
2022-08-23T12:07:11.111Z,30.62
2022-08-23T12:08:40.247Z,30.65
2022-08-23T12:09:49.166Z,30.68
2022-08-23T12:10:56.278Z,30.68
2022-08-23T12:12:02.150Z,30.64
2022-08-23T12:13:23.443Z,30.64
2022-08-23T12:14:36.936Z,30.63
2022-08-23T12:16:04.715Z,30.60
2022-08-23T12:17:16.940Z,30.67
2022-08-23T12:18:24.126Z,30.64
2022-08-23T12:19:44.218Z,30.33
2022-08-23T12:20:48.385Z,30.65
2022-08-23T12:21:53.776Z,30.56
2022-08-23T12:23:03.160Z,30.54
2022-08-23T12:24:30.836Z,30.50
2022-08-23T12:25:33.769Z,30.47
2022-08-23T12:26:48.958Z,30.47
2022-08-23T12:28:00.731Z,30.36
2022-08-23T12:29:22.171Z,30.58
2022-08-23T12:30:41.093Z,30.56
2022-08-23T12:31:48.236Z,30.56
2022-08-23T12:33:00.187Z,30.57
2022-08-23T12:34:18.364Z,30.65
2022-08-23T12:35:41.327Z,30.71
2022-08-23T12:36:47.526Z,30.74
2022-08-23T12:38:11.723Z,30.74
2022-08-23T12:39:23.874Z,30.69
2022-08-23T12:40:42.741Z,30.65
2022-08-23T12:41:55.226Z,30.70
2022-08-23T12:43:07.345Z,30.79
2022-08-23T12:44:09.850Z,30.77
2022-08-23T12:45:15.638Z,30.75
2022-08-23T12:46:31.501Z,30.77
2022-08-23T12:47:38.470Z,30.80
2022-08-23T12:48:42.880Z,30.80
2022-08-23T12:50:00.910Z,30.83
2022-08-23T12:51:09.854Z,30.80
2022-08-23T12:52:12.549Z,30.81
2022-08-23T12:53:18.326Z,30.89
2022-08-23T12:54:23.948Z,30.84
2022-08-23T12:55:29.978Z,30.77
2022-08-23T12:56:35.165Z,30.77
2022-08-23T12:57:41.074Z,30.76
2022-08-23T12:58:47.175Z,30.77
2022-08-23T13:00:16.398Z,30.76
2022-08-23T13:01:06.237Z,30.77
2022-08-23T13:02:12.249Z,30.75
2022-08-23T13:03:22.914Z,30.82
2022-08-23T13:04:25.349Z,30.86
2022-08-23T13:05:31.265Z,30.85
2022-08-23T13:06:42.278Z,30.85
2022-08-23T13:07:45.636Z,30.84
2022-08-23T13:08:54.291Z,30.86
2022-08-23T13:09:58.479Z,30.83
2022-08-23T13:11:07.795Z,30.79
2022-08-23T13:12:10.006Z,30.79
2022-08-23T13:13:15.599Z,30.82
2022-08-23T13:14:33.380Z,30.81
2022-08-23T13:15:47.832Z,30.74
2022-08-23T13:16:51.039Z,30.65
2022-08-23T13:17:59.985Z,30.69
2022-08-23T13:19:18.060Z,30.73
2022-08-23T13:21:39.937Z,30.65
2022-08-23T13:23:04.601Z,30.45
2022-08-23T13:24:31.414Z,30.42
2022-08-23T13:25:35.422Z,30.35
2022-08-23T13:26:42.680Z,30.27
2022-08-23T13:27:48.929Z,30.21
2022-08-23T13:29:09.981Z,30.20
2022-08-23T13:30:17.719Z,30.26
2022-08-23T13:31:20.476Z,30.31
2022-08-23T13:32:35.588Z,30.37
2022-08-23T13:33:40.913Z,30.42
2022-08-23T13:34:48.618Z,30.41
2022-08-23T13:35:52.694Z,30.40
2022-08-23T13:37:03.364Z,30.07
2022-08-23T13:38:22.089Z,30.25
2022-08-23T13:39:25.365Z,30.22
2022-08-23T13:40:33.384Z,30.08
2022-08-23T13:41:38.755Z,30.05
2022-08-23T13:42:47.650Z,29.98
2022-08-23T13:43:52.397Z,29.90
2022-08-23T13:44:54.922Z,29.87
2022-08-23T13:46:00.268Z,29.91
2022-08-23T13:47:04.915Z,29.85
2022-08-23T13:48:11.289Z,29.90
2022-08-23T13:50:35.289Z,30.08
2022-08-23T13:51:40.608Z,29.99
2022-08-23T13:53:10.089Z,29.91
2022-08-23T13:53:48.577Z,29.86
2022-08-23T13:54:52.973Z,29.78
2022-08-23T13:55:55.979Z,29.70
2022-08-23T13:57:05.009Z,29.70
2022-08-23T13:58:13.841Z,29.65
2022-08-23T13:59:32.217Z,29.64
2022-08-23T14:00:35.624Z,29.61
2022-08-23T14:01:38.792Z,29.56
2022-08-23T14:02:41.507Z,29.50
2022-08-23T14:03:43.892Z,29.47
2022-08-23T14:04:47.055Z,29.45
2022-08-23T14:05:49.424Z,29.37
2022-08-23T14:06:51.888Z,29.40
2022-08-23T14:07:54.116Z,29.32
2022-08-23T14:08:56.464Z,29.31
2022-08-23T14:09:59.510Z,29.29
2022-08-23T14:11:02.688Z,29.32
2022-08-23T14:12:09.636Z,29.29
2022-08-23T14:13:14.920Z,29.26
2022-08-23T14:14:17.255Z,29.17
2022-08-23T14:15:20.023Z,29.21
2022-08-23T14:16:33.449Z,29.20
2022-08-23T14:17:39.270Z,29.17
2022-08-23T14:19:16.560Z,29.17
2022-08-23T14:20:52.049Z,29.23
2022-08-23T14:21:54.407Z,29.32
2022-08-23T14:22:56.889Z,29.36
2022-08-23T14:23:59.076Z,29.44
2022-08-23T14:25:02.614Z,29.52
2022-08-23T14:26:05.587Z,29.59
2022-08-23T14:27:08.415Z,29.68
2022-08-23T14:28:10.827Z,29.72
2022-08-23T14:29:15.350Z,29.75
2022-08-23T14:30:30.243Z,29.83
2022-08-23T14:31:32.653Z,29.91
2022-08-23T14:32:35.030Z,29.95
2022-08-23T14:33:38.019Z,29.94
2022-08-23T14:34:40.369Z,29.96